createdAt,value
2022-09-28T00:01:18.926Z,96382.97
2022-09-28T00:03:47.349Z,96380.03
2022-09-28T00:06:16.491Z,96380.25
2022-09-28T00:08:43.320Z,96374.38
2022-09-28T00:11:13.778Z,96373.19
2022-09-28T00:13:41.872Z,96376.81
2022-09-28T00:16:12.219Z,96380.59
2022-09-28T00:18:38.901Z,96385.69
2022-09-28T00:21:14.651Z,96389.78
2022-09-28T00:24:01.269Z,96387.66
2022-09-28T00:26:29.444Z,96392.41
2022-09-28T00:28:59.325Z,96381.78
2022-09-28T00:31:32.855Z,96368.06
2022-09-28T00:34:01.937Z,96361.03
2022-09-28T00:36:31.023Z,96363.38
2022-09-28T00:38:59.142Z,96375.66
2022-09-28T00:41:27.962Z,96376.34
2022-09-28T00:44:26.501Z,96373.25
2022-09-28T00:46:55.280Z,96376.19
2022-09-28T00:49:32.266Z,96367.19
2022-09-28T00:52:01.665Z,96371.47
2022-09-28T00:54:28.749Z,96367.19
2022-09-28T00:56:56.322Z,96367.53
2022-09-28T00:59:24.842Z,96367.53
2022-09-28T01:01:51.936Z,96380.34
2022-09-28T01:04:18.953Z,96376.38
2022-09-28T01:06:47.186Z,96374.09
2022-09-28T01:09:15.207Z,96375.19
2022-09-28T01:11:43.309Z,96380.72
2022-09-28T01:14:15.099Z,96385.47
2022-09-28T01:16:44.863Z,96380.25
2022-09-28T01:19:41.359Z,96385.47
2022-09-28T01:22:34.309Z,96383.63
2022-09-28T01:25:11.594Z,96381.84
2022-09-28T01:27:47.914Z,96377.56
2022-09-28T01:30:19.863Z,96369.03
2022-09-28T01:33:06.043Z,96374.59
2022-09-28T01:36:14.556Z,96362.13
2022-09-28T01:38:47.436Z,96363.72
2022-09-28T01:41:17.738Z,96355.84
2022-09-28T01:43:57.568Z,96361.72
2022-09-28T01:46:34.139Z,96361.72
2022-09-28T01:49:24.597Z,96358.94
2022-09-28T01:51:57.432Z,96349.31
2022-09-28T01:54:29.874Z,96356.88
2022-09-28T01:57:21.066Z,96353.59
2022-09-28T02:00:00.496Z,96354.53
2022-09-28T02:02:34.071Z,96351.81
2022-09-28T02:05:13.282Z,96359.50
2022-09-28T02:08:02.287Z,96345.53
2022-09-28T02:10:38.970Z,96341.78
2022-09-28T02:13:11.068Z,96332.97
2022-09-28T02:15:45.244Z,96332.63
2022-09-28T02:18:13.224Z,96331.28
2022-09-28T02:20:50.839Z,96333.25
2022-09-28T02:23:20.154Z,96325.88
2022-09-28T02:26:01.915Z,96323.03
2022-09-28T02:28:30.158Z,96319.13
2022-09-28T02:30:57.110Z,96325.38
2022-09-28T02:33:32.458Z,96331.56
2022-09-28T02:36:00.933Z,96326.13
2022-09-28T02:38:31.075Z,96327.66
2022-09-28T02:41:11.460Z,96318.75
2022-09-28T02:44:07.041Z,96332.47
2022-09-28T02:46:49.542Z,96331.34
2022-09-28T02:49:55.370Z,96316.44
2022-09-28T02:52:36.119Z,96334.09
2022-09-28T02:55:18.559Z,96328.72
2022-09-28T02:58:05.435Z,96326.56
2022-09-28T03:00:41.537Z,96321.00
2022-09-28T03:03:44.695Z,96333.91
2022-09-28T03:06:30.151Z,96328.59
2022-09-28T03:09:26.860Z,96335.25
2022-09-28T03:11:58.338Z,96332.28
2022-09-28T03:14:25.209Z,96339.25
2022-09-28T03:16:55.844Z,96338.22
2022-09-28T03:19:30.226Z,96327.91
2022-09-28T03:21:56.850Z,96322.53
2022-09-28T03:24:23.823Z,96324.78
2022-09-28T03:26:50.770Z,96321.13
2022-09-28T03:29:19.412Z,96326.91
2022-09-28T03:31:50.390Z,96313.72
2022-09-28T03:34:17.696Z,96315.59
2022-09-28T03:36:44.494Z,96322.31
2022-09-28T03:39:11.738Z,96312.09
2022-09-28T03:41:38.543Z,96313.31
2022-09-28T03:44:05.866Z,96314.72
2022-09-28T03:46:33.390Z,96307.09
2022-09-28T03:49:05.531Z,96298.41
2022-09-28T03:51:32.386Z,96298.41
2022-09-28T03:53:59.818Z,96297.91
2022-09-28T03:56:26.670Z,96304.19
2022-09-28T03:58:53.757Z,96307.44
2022-09-28T04:01:23.008Z,96311.34
2022-09-28T04:03:55.887Z,96296.38
2022-09-28T04:06:24.015Z,96295.50
2022-09-28T04:08:51.155Z,96294.31
2022-09-28T04:11:18.795Z,96295.31
2022-09-28T04:13:52.053Z,96296.97
2022-09-28T04:16:19.437Z,96296.69
2022-09-28T04:19:01.322Z,96294.09
2022-09-28T04:21:42.885Z,96280.06
2022-09-28T04:24:12.991Z,96278.72
2022-09-28T04:26:40.259Z,96281.00
2022-09-28T04:29:18.278Z,96265.50
2022-09-28T04:31:56.222Z,96262.03
2022-09-28T04:34:37.229Z,96265.16
2022-09-28T04:37:05.821Z,96279.06
2022-09-28T04:39:32.575Z,96280.75
2022-09-28T04:42:00.120Z,96268.94
2022-09-28T04:44:27.866Z,96275.84
2022-09-28T04:47:06.317Z,96283.53
2022-09-28T04:49:35.482Z,96299.06
2022-09-28T04:52:08.533Z,96300.66
2022-09-28T04:54:35.852Z,96296.97
2022-09-28T04:57:03.855Z,96296.78
2022-09-28T04:59:30.911Z,96309.41
2022-09-28T05:01:57.783Z,96308.38
2022-09-28T05:04:37.069Z,96309.00
2022-09-28T05:07:22.600Z,96306.72
2022-09-28T05:09:49.631Z,96304.22
2022-09-28T05:12:16.344Z,96297.59
2022-09-28T05:14:44.014Z,96303.50
2022-09-28T05:17:10.933Z,96306.97
2022-09-28T05:19:53.863Z,96298.00
2022-09-28T05:22:20.606Z,96307.78
2022-09-28T05:24:47.382Z,96301.88
2022-09-28T05:27:14.787Z,96293.69
2022-09-28T05:29:44.679Z,96292.41
2022-09-28T05:32:30.104Z,96293.25
2022-09-28T05:35:17.211Z,96285.44
2022-09-28T05:37:47.329Z,96297.41
2022-09-28T05:40:14.625Z,96297.25
2022-09-28T05:42:41.653Z,96299.53
2022-09-28T05:45:10.226Z,96289.00
2022-09-28T05:47:40.323Z,96288.41
2022-09-28T05:50:11.726Z,96270.72
2022-09-28T05:52:39.035Z,96272.75
2022-09-28T05:55:07.730Z,96266.34
2022-09-28T05:57:37.440Z,96255.41
2022-09-28T06:00:09.187Z,96249.53
2022-09-28T06:02:56.351Z,96243.44
2022-09-28T06:05:23.609Z,96245.25
2022-09-28T06:07:50.393Z,96245.25
2022-09-28T06:10:17.086Z,96257.22
2022-09-28T06:12:45.583Z,96255.56
2022-09-28T06:15:15.543Z,96260.94
2022-09-28T06:17:43.913Z,96265.88
2022-09-28T06:20:37.558Z,96260.19
2022-09-28T06:23:12.680Z,96256.28
2022-09-28T06:25:39.987Z,96255.59
2022-09-28T06:28:10.145Z,96253.84
2022-09-28T06:30:40.707Z,96256.28
2022-09-28T06:33:14.004Z,96255.97
2022-09-28T06:35:42.549Z,96257.13
2022-09-28T06:38:10.266Z,96257.81
2022-09-28T06:40:37.973Z,96267.31
2022-09-28T06:43:10.619Z,96262.38
2022-09-28T06:45:56.198Z,96262.88
2022-09-28T06:48:44.358Z,96262.56
2022-09-28T06:51:40.079Z,96268.09
2022-09-28T06:54:16.232Z,96257.28
2022-09-28T06:56:57.125Z,96245.06
2022-09-28T06:59:24.253Z,96247.78
2022-09-28T07:01:52.032Z,96246.22
2022-09-28T07:04:38.081Z,96243.91
2022-09-28T07:07:25.982Z,96244.28
2022-09-28T07:10:02.529Z,96242.16
2022-09-28T07:12:47.950Z,96238.34
2022-09-28T07:15:25.575Z,96237.00
2022-09-28T07:18:03.119Z,96220.66
2022-09-28T07:20:46.731Z,96216.63
2022-09-28T07:23:19.791Z,96213.34
2022-09-28T07:26:08.334Z,96198.19
2022-09-28T07:28:56.959Z,96210.69
2022-09-28T07:31:49.958Z,96207.19
2022-09-28T07:34:28.855Z,96201.72
2022-09-28T07:37:05.701Z,96199.22
2022-09-28T07:39:52.522Z,96207.41
2022-09-28T07:42:19.399Z,96202.03
2022-09-28T07:44:46.350Z,96199.03
2022-09-28T07:47:13.726Z,96195.19
2022-09-28T07:49:59.607Z,96189.81
2022-09-28T07:52:45.871Z,96192.34
2022-09-28T07:55:26.111Z,96193.19
2022-09-28T07:58:23.027Z,96187.84
2022-09-28T08:01:04.176Z,96193.59
2022-09-28T08:03:31.400Z,96191.13
2022-09-28T08:06:00.198Z,96198.44
2022-09-28T08:08:27.839Z,96203.94
2022-09-28T08:10:58.989Z,96191.50
2022-09-28T08:14:00.505Z,96192.75
2022-09-28T08:16:47.583Z,96189.63
2022-09-28T08:19:56.248Z,96183.63
2022-09-28T08:22:23.244Z,96191.44
2022-09-28T08:24:53.352Z,96184.97
2022-09-28T08:27:20.177Z,96186.41
2022-09-28T08:29:52.932Z,96180.47
2022-09-28T08:32:38.192Z,96184.19
2022-09-28T08:35:26.247Z,96181.00
2022-09-28T08:38:15.293Z,96189.69
2022-09-28T08:41:19.902Z,96176.31
2022-09-28T08:44:16.067Z,96183.38
2022-09-28T08:47:40.843Z,96165.44
2022-09-28T08:50:33.091Z,96155.56
2022-09-28T08:53:27.134Z,96155.13
2022-09-28T08:56:07.792Z,96160.94
2022-09-28T08:58:44.295Z,96145.84
2022-09-28T09:01:16.770Z,96151.22
2022-09-28T09:03:45.806Z,96163.44
2022-09-28T09:06:53.559Z,96168.53
2022-09-28T09:09:53.937Z,96165.44
2022-09-28T09:12:36.626Z,96154.06
2022-09-28T09:15:30.623Z,96153.25
2022-09-28T09:18:22.448Z,96153.88
2022-09-28T09:21:15.330Z,96150.63
2022-09-28T09:23:56.956Z,96146.34
2022-09-28T09:26:45.766Z,96150.22
2022-09-28T09:29:28.065Z,96149.59
2022-09-28T09:32:04.353Z,96148.91
2022-09-28T09:34:56.593Z,96152.94
2022-09-28T09:37:58.262Z,96156.50
2022-09-28T09:40:31.300Z,96151.16
2022-09-28T09:43:42.586Z,96152.03
2022-09-28T09:47:07.777Z,96153.25
2022-09-28T09:50:05.481Z,96148.97
2022-09-28T09:53:15.966Z,96143.25
2022-09-28T09:55:57.928Z,96137.78
2022-09-28T09:58:46.272Z,96129.56
2022-09-28T10:01:36.321Z,96127.16
2022-09-28T10:04:46.743Z,96140.41
2022-09-28T10:07:42.560Z,96125.38
2022-09-28T10:10:18.778Z,96127.19
2022-09-28T10:12:51.228Z,96128.03
2022-09-28T10:15:26.538Z,96128.19
2022-09-28T10:18:14.737Z,96136.16
2022-09-28T10:21:00.488Z,96127.59
2022-09-28T10:23:37.739Z,96129.56
2022-09-28T10:26:10.957Z,96124.88
2022-09-28T10:28:48.522Z,96116.03
2022-09-28T10:31:35.446Z,96110.41
2022-09-28T10:34:05.254Z,96115.66
2022-09-28T10:36:38.352Z,96110.88
2022-09-28T10:39:06.620Z,96116.34
2022-09-28T10:41:33.970Z,96116.34
2022-09-28T10:44:18.134Z,96104.78
2022-09-28T10:47:01.723Z,96112.00
2022-09-28T10:49:46.525Z,96117.69
2022-09-28T10:52:42.353Z,96118.22
2022-09-28T10:55:21.256Z,96118.63
2022-09-28T10:57:48.654Z,96118.47
2022-09-28T11:00:40.552Z,96108.13
2022-09-28T11:03:33.911Z,96092.19
2022-09-28T11:06:07.991Z,96090.06
2022-09-28T11:08:44.623Z,96088.50
2022-09-28T11:11:21.794Z,96090.06
2022-09-28T11:14:03.939Z,96092.13
2022-09-28T11:16:38.856Z,96082.53
2022-09-28T11:19:27.669Z,96085.16
2022-09-28T11:21:54.783Z,96070.75
2022-09-28T11:24:29.226Z,96069.47
2022-09-28T11:27:00.444Z,96061.81
2022-09-28T11:29:46.070Z,96073.78
2022-09-28T11:32:24.087Z,96063.41
2022-09-28T11:35:32.802Z,96070.72
2022-09-28T11:38:22.831Z,96052.28
2022-09-28T11:41:24.576Z,96050.53
2022-09-28T11:44:17.748Z,96050.78
2022-09-28T11:47:03.193Z,96041.13
2022-09-28T11:49:49.414Z,96048.56
2022-09-28T11:52:19.245Z,96056.63
2022-09-28T11:54:54.965Z,96049.72
2022-09-28T11:57:28.062Z,96042.34
2022-09-28T12:00:02.146Z,96036.31
2022-09-28T12:02:42.832Z,96029.94
2022-09-28T12:05:32.519Z,96018.25
2022-09-28T12:08:18.085Z,96016.28
2022-09-28T12:11:13.526Z,96021.75
2022-09-28T12:14:20.527Z,96022.22
2022-09-28T12:17:20.109Z,96018.69
2022-09-28T12:19:58.313Z,96020.56
2022-09-28T12:22:53.864Z,96012.69
2022-09-28T12:25:23.303Z,96015.44
2022-09-28T12:27:56.092Z,96010.66
2022-09-28T12:30:26.995Z,96003.44
2022-09-28T12:33:04.125Z,96005.38
2022-09-28T12:36:06.749Z,95995.81
2022-09-28T12:39:14.607Z,95991.75
2022-09-28T12:41:57.641Z,95985.06
2022-09-28T12:45:02.194Z,95987.25
2022-09-28T12:47:59.510Z,95987.22
2022-09-28T12:50:52.766Z,95987.59
2022-09-28T12:53:39.637Z,95986.97
2022-09-28T12:56:41.100Z,95982.25
2022-09-28T12:59:38.346Z,95984.09
2022-09-28T13:02:31.518Z,95979.91
2022-09-28T13:05:08.464Z,95966.56
2022-09-28T13:08:08.488Z,95979.75
2022-09-28T13:10:50.840Z,95975.31
2022-09-28T13:13:38.124Z,95980.75
2022-09-28T13:16:37.719Z,95979.06
2022-09-28T13:19:16.116Z,95975.56
2022-09-28T13:21:45.794Z,95979.06
2022-09-28T13:24:32.260Z,95975.56
2022-09-28T13:27:07.063Z,95974.19
2022-09-28T13:32:12.706Z,95984.75
2022-09-28T13:34:40.058Z,95979.53
2022-09-28T13:37:20.006Z,95969.72
2022-09-28T13:39:52.180Z,95970.09
2022-09-28T13:42:53.206Z,95972.38
2022-09-28T13:45:22.923Z,95967.50
2022-09-28T13:48:01.863Z,95961.44
2022-09-28T13:50:28.889Z,95969.13
2022-09-28T13:53:26.545Z,95967.91
2022-09-28T13:55:58.431Z,95964.66
2022-09-28T13:58:38.432Z,95957.19
2022-09-28T14:01:12.916Z,95955.34
2022-09-28T14:04:12.002Z,95962.16
2022-09-28T14:06:47.482Z,95965.50
2022-09-28T14:09:16.354Z,95956.19
2022-09-28T14:11:44.515Z,95959.50
2022-09-28T14:14:13.816Z,95968.84
2022-09-28T14:16:44.402Z,95967.63
2022-09-28T14:19:26.611Z,95964.66
2022-09-28T14:22:02.537Z,95964.56
2022-09-28T14:24:56.628Z,95961.09
2022-09-28T14:27:48.108Z,95964.09
2022-09-28T14:30:15.068Z,95963.47
2022-09-28T14:32:58.267Z,95969.75
2022-09-28T14:35:39.308Z,95962.38
2022-09-28T14:38:42.828Z,95961.28
2022-09-28T14:41:31.523Z,95959.31
2022-09-28T14:44:02.838Z,95955.25
2022-09-28T14:46:33.158Z,95957.16
2022-09-28T14:49:19.825Z,95961.69
2022-09-28T14:51:58.387Z,95962.91
2022-09-28T14:54:27.258Z,95961.53
2022-09-28T14:57:02.555Z,95964.84
2022-09-28T14:59:36.017Z,95962.59
2022-09-28T15:02:12.558Z,95958.94
2022-09-28T15:05:08.658Z,95965.03
2022-09-28T15:07:48.138Z,95955.69
2022-09-28T15:10:31.399Z,95966.50
2022-09-28T15:13:01.901Z,95971.63
2022-09-28T15:15:39.659Z,95969.19
2022-09-28T15:18:29.532Z,95959.63
2022-09-28T15:20:57.928Z,95956.63
2022-09-28T15:23:35.673Z,95960.66
2022-09-28T15:26:04.175Z,95971.47
2022-09-28T15:28:30.987Z,95970.03
2022-09-28T15:31:02.553Z,95972.53
2022-09-28T15:33:50.455Z,95970.06
2022-09-28T15:36:22.127Z,95976.81
2022-09-28T15:39:01.700Z,95976.22
2022-09-28T15:41:29.479Z,95968.47
2022-09-28T15:44:33.188Z,95975.22
2022-09-28T15:47:09.341Z,95977.25
2022-09-28T15:49:39.249Z,95976.84
2022-09-28T15:52:06.271Z,95978.84
2022-09-28T15:54:44.501Z,95981.50
2022-09-28T15:57:38.397Z,95981.09
2022-09-28T16:00:23.355Z,95980.69
2022-09-28T16:03:05.462Z,95975.00
2022-09-28T16:05:45.556Z,95985.38
2022-09-28T16:08:21.446Z,95991.28
2022-09-28T16:11:02.430Z,95996.81
2022-09-28T16:13:29.352Z,95993.31
2022-09-28T16:16:00.265Z,95992.50
2022-09-28T16:18:29.477Z,95985.81
2022-09-28T16:21:19.193Z,95994.16
2022-09-28T16:23:52.752Z,95989.47
2022-09-28T16:26:54.878Z,95997.19
2022-09-28T16:29:36.759Z,95998.19
2022-09-28T16:32:45.765Z,95994.50
2022-09-28T16:35:22.015Z,95998.97
2022-09-28T16:37:57.397Z,95994.06
2022-09-28T16:40:24.461Z,95991.81
2022-09-28T16:42:53.976Z,95995.09
2022-09-28T16:45:23.869Z,96003.81
2022-09-28T16:47:54.692Z,95997.31
2022-09-28T16:50:22.366Z,95996.88
2022-09-28T16:53:15.734Z,96011.28
2022-09-28T16:55:42.741Z,96010.66
2022-09-28T16:58:09.415Z,96009.00
2022-09-28T17:00:36.416Z,96010.25
2022-09-28T17:03:12.955Z,96011.88
2022-09-28T17:05:40.197Z,96010.66
2022-09-28T17:08:07.260Z,96013.28
2022-09-28T17:10:50.110Z,96016.31
2022-09-28T17:13:33.425Z,96013.47
2022-09-28T17:16:08.548Z,96004.72
2022-09-28T17:18:39.147Z,95993.16
2022-09-28T17:21:15.795Z,95988.25
2022-09-28T17:23:43.977Z,95987.84
2022-09-28T17:26:30.887Z,96004.06
2022-09-28T17:29:01.950Z,95991.84
2022-09-28T17:31:30.361Z,95987.78
2022-09-28T17:33:57.473Z,95992.03
2022-09-28T17:36:26.003Z,95988.81
2022-09-28T17:38:52.781Z,96000.34
2022-09-28T17:41:21.155Z,95993.25
2022-09-28T17:43:48.800Z,95988.38
2022-09-28T17:46:35.839Z,95999.53
2022-09-28T17:49:04.643Z,96000.75
2022-09-28T17:51:34.591Z,95995.88
2022-09-28T17:54:02.341Z,95992.00
2022-09-28T17:56:32.373Z,96001.53
2022-09-28T17:59:02.957Z,96002.09
2022-09-28T18:01:34.195Z,96003.94
2022-09-28T18:04:02.924Z,96009.22
2022-09-28T18:06:29.735Z,96012.25
2022-09-28T18:08:56.627Z,96004.53
2022-09-28T18:11:23.549Z,96007.56
2022-09-28T18:13:50.471Z,96012.84
2022-09-28T18:16:19.562Z,96011.41
2022-09-28T18:18:47.472Z,96015.84
2022-09-28T18:21:15.007Z,96017.25
2022-09-28T18:23:41.765Z,96016.00
2022-09-28T18:26:13.183Z,96010.34
2022-09-28T18:28:40.311Z,96017.44
2022-09-28T18:31:10.970Z,96018.66
2022-09-28T18:33:50.276Z,96014.75
2022-09-28T18:36:16.989Z,96014.53
2022-09-28T18:38:44.091Z,96006.19
2022-09-28T18:41:17.042Z,96007.75
2022-09-28T18:43:49.266Z,96004.47
2022-09-28T18:46:18.436Z,96009.75
2022-09-28T18:48:47.230Z,96003.22
2022-09-28T18:51:14.184Z,96002.00
2022-09-28T18:53:40.834Z,96007.22
2022-09-28T18:56:09.418Z,96000.13
2022-09-28T18:58:38.242Z,95997.03
2022-09-28T19:01:28.888Z,95998.25
2022-09-28T19:03:59.572Z,96016.06
2022-09-28T19:06:26.428Z,96010.81
2022-09-28T19:08:55.859Z,96010.81
2022-09-28T19:11:23.152Z,96018.09
2022-09-28T19:13:50.429Z,96022.38
2022-09-28T19:16:26.616Z,96019.97
2022-09-28T19:18:53.719Z,96011.06
2022-09-28T19:21:21.278Z,96010.63
2022-09-28T19:23:52.102Z,96016.91
2022-09-28T19:26:21.907Z,96020.16
2022-09-28T19:28:48.941Z,96021.78
2022-09-28T19:31:16.685Z,96020.78
2022-09-28T19:33:45.113Z,96008.16
2022-09-28T19:36:23.979Z,96017.31
2022-09-28T19:38:52.415Z,96019.97
2022-09-28T19:41:44.286Z,96019.34
2022-09-28T19:44:19.455Z,96027.06
2022-09-28T19:46:46.723Z,96018.53
2022-09-28T19:49:19.629Z,96030.09
2022-09-28T19:54:37.603Z,96036.78
2022-09-28T19:57:08.660Z,96029.69
2022-09-28T19:59:37.261Z,96030.13
2022-09-28T20:02:05.942Z,96030.75
2022-09-28T20:04:32.712Z,96038.88
2022-09-28T20:06:59.679Z,96037.22
2022-09-28T20:09:26.395Z,96045.13
2022-09-28T20:11:53.307Z,96039.22
2022-09-28T20:14:22.458Z,96032.34
2022-09-28T20:16:51.338Z,96031.13
2022-09-28T20:19:21.066Z,96036.59
2022-09-28T20:21:48.471Z,96031.31
2022-09-28T20:24:18.705Z,96040.06
2022-09-28T20:26:46.056Z,96037.59
2022-09-28T20:29:13.415Z,96031.88
2022-09-28T20:31:40.236Z,96029.25
2022-09-28T20:34:07.679Z,96040.41
2022-09-28T20:36:35.469Z,96042.06
2022-09-28T20:39:08.506Z,96038.41
2022-09-28T20:41:36.975Z,96034.78
2022-09-28T20:44:06.619Z,96037.22
2022-09-28T20:46:35.996Z,96027.69
2022-09-28T20:49:04.482Z,96022.22
2022-09-28T20:51:31.851Z,96024.03
2022-09-28T20:53:59.254Z,96026.88
2022-09-28T20:56:28.655Z,96025.63
2022-09-28T20:58:55.997Z,96025.81
2022-09-28T21:01:23.943Z,96036.34
2022-09-28T21:03:55.901Z,96026.19
2022-09-28T21:06:25.567Z,96031.47
2022-09-28T21:08:52.639Z,96033.28
2022-09-28T21:11:21.724Z,96041.84
2022-09-28T21:13:51.492Z,96043.63
2022-09-28T21:16:18.284Z,96040.81
2022-09-28T21:18:45.235Z,96033.94
2022-09-28T21:21:16.775Z,96040.81
2022-09-28T21:23:47.222Z,96054.22
2022-09-28T21:26:18.902Z,96057.88
2022-09-28T21:28:46.001Z,96055.03
2022-09-28T21:31:14.087Z,96054.06
2022-09-28T21:33:40.899Z,96045.75
2022-09-28T21:36:08.146Z,96047.41
2022-09-28T21:38:35.151Z,96037.09
2022-09-28T21:41:01.838Z,96031.81
2022-09-28T21:43:30.225Z,96028.38
2022-09-28T21:45:58.235Z,96023.91
2022-09-28T21:48:26.640Z,96016.56
2022-09-28T21:51:00.974Z,96014.13
2022-09-28T21:53:32.811Z,96028.72
2022-09-28T21:56:00.890Z,96035.03
2022-09-28T21:58:30.107Z,96045.81
2022-09-28T22:01:08.044Z,96043.16
2022-09-28T22:03:36.253Z,96040.53
2022-09-28T22:06:06.185Z,96042.16
2022-09-28T22:08:33.698Z,96043.78
2022-09-28T22:11:02.907Z,96044.59
2022-09-28T22:13:31.451Z,96047.06
2022-09-28T22:15:58.982Z,96045.41
2022-09-28T22:18:30.573Z,96041.78
2022-09-28T22:21:06.691Z,96044.59
2022-09-28T22:23:34.413Z,96048.06
2022-09-28T22:26:07.689Z,96044.22
2022-09-28T22:28:35.313Z,96040.59
2022-09-28T22:31:02.034Z,96036.13
2022-09-28T22:33:28.913Z,96024.94
2022-09-28T22:35:55.787Z,96028.59
2022-09-28T22:38:24.166Z,96037.91
2022-09-28T22:40:56.208Z,96053.72
2022-09-28T22:43:24.633Z,96049.75
2022-09-28T22:46:02.090Z,96058.22
2022-09-28T22:48:29.989Z,96063.31
2022-09-28T22:50:56.736Z,96051.56
2022-09-28T22:53:23.709Z,96051.56
2022-09-28T22:55:50.414Z,96051.56
2022-09-28T22:58:17.197Z,96053.22
2022-09-28T23:00:44.556Z,96055.47
2022-09-28T23:03:11.392Z,96053.00
2022-09-28T23:05:40.563Z,96047.56
2022-09-28T23:08:07.494Z,96048.59
2022-09-28T23:10:34.078Z,96057.31
2022-09-28T23:13:01.092Z,96046.56
2022-09-28T23:15:29.021Z,96045.56
2022-09-28T23:17:56.087Z,96041.47
2022-09-28T23:20:23.710Z,96040.72
2022-09-28T23:22:50.502Z,96041.31
2022-09-28T23:25:18.837Z,96031.34
2022-09-28T23:27:50.422Z,96037.00
2022-09-28T23:30:20.018Z,96034.56
2022-09-28T23:32:46.688Z,96036.38
2022-09-28T23:35:14.354Z,96028.47
2022-09-28T23:37:41.026Z,96031.75
2022-09-28T23:40:08.214Z,96033.38
2022-09-28T23:42:35.549Z,96035.41
2022-09-28T23:45:02.355Z,96042.28
2022-09-28T23:47:29.025Z,96043.31
2022-09-28T23:49:55.902Z,96049.63
2022-09-28T23:52:22.518Z,96053.47
2022-09-28T23:54:49.425Z,96044.91
2022-09-28T23:57:16.062Z,96037.81
2022-09-28T23:59:43.211Z,96033.38
